createdAt,value
2019-05-09T00:01:43.894Z,8.97
2019-05-09T00:04:13.905Z,9.17
2019-05-09T00:06:43.124Z,10.43
2019-05-09T00:09:13.742Z,9.87
2019-05-09T00:11:43.962Z,10.70
2019-05-09T00:14:13.587Z,8.90
2019-05-09T00:16:43.905Z,8.60
2019-05-09T00:19:13.509Z,8.83
2019-05-09T00:21:44.021Z,4.83
2019-05-09T00:24:13.871Z,4.27
2019-05-09T00:26:44.302Z,4.10
2019-05-09T00:29:24.386Z,4.10
2019-05-09T00:31:57.468Z,4.40
2019-05-09T00:34:28.112Z,3.37
2019-05-09T00:36:56.541Z,3.10
2019-05-09T00:39:25.158Z,2.87
2019-05-09T00:41:53.930Z,3.57
2019-05-09T00:44:36.271Z,2.97
2019-05-09T00:47:15.376Z,3.13
2019-05-09T00:49:43.801Z,3.00
2019-05-09T00:52:14.090Z,2.80
2019-05-09T00:54:43.759Z,2.60
2019-05-09T00:57:14.146Z,2.83
2019-05-09T00:59:44.533Z,3.13
2019-05-09T01:02:13.218Z,3.30
2019-05-09T01:04:43.798Z,3.23
2019-05-09T01:07:13.944Z,3.33
2019-05-09T01:09:43.947Z,3.40
2019-05-09T01:12:14.352Z,3.63
2019-05-09T01:14:43.236Z,4.30
2019-05-09T01:17:13.559Z,3.97
2019-05-09T01:19:43.249Z,3.90
2019-05-09T01:22:13.228Z,4.00
2019-05-09T01:24:44.290Z,4.70
2019-05-09T01:27:14.237Z,3.80
2019-05-09T01:29:43.914Z,4.97
2019-05-09T01:32:14.515Z,4.80
2019-05-09T01:34:43.689Z,4.70
2019-05-09T01:37:14.142Z,4.80
2019-05-09T01:39:44.061Z,5.43
2019-05-09T01:42:13.732Z,5.63
2019-05-09T01:44:44.067Z,5.77
2019-05-09T01:47:14.133Z,5.80
2019-05-09T01:49:43.246Z,6.53
2019-05-09T01:52:13.773Z,6.03
2019-05-09T01:54:44.038Z,6.40
2019-05-09T01:57:13.816Z,6.57
2019-05-09T01:59:44.354Z,6.73
2019-05-09T02:02:14.258Z,7.63
2019-05-09T02:04:43.929Z,7.47
2019-05-09T02:07:13.270Z,7.13
2019-05-09T02:09:43.442Z,8.80
2019-05-09T02:12:13.950Z,7.13
2019-05-09T02:14:43.910Z,8.93
2019-05-09T02:17:19.841Z,7.77
2019-05-09T02:19:48.293Z,7.37
2019-05-09T02:22:35.488Z,7.80
2019-05-09T02:25:06.846Z,7.73
2019-05-09T02:27:35.281Z,7.90
2019-05-09T02:30:06.642Z,7.00
2019-05-09T02:32:36.058Z,7.77
2019-05-09T02:35:09.905Z,8.30
2019-05-09T02:37:39.074Z,9.07
2019-05-09T02:40:09.834Z,8.60
2019-05-09T02:42:40.205Z,7.30
2019-05-09T02:45:10.096Z,8.57
2019-05-09T02:47:38.913Z,8.20
2019-05-09T02:50:28.533Z,8.37
2019-05-09T02:52:59.074Z,7.20
2019-05-09T02:55:28.854Z,9.20
2019-05-09T02:57:59.375Z,8.73
2019-05-09T03:00:35.669Z,8.43
2019-05-09T03:03:08.912Z,9.00
2019-05-09T03:05:38.331Z,10.90
2019-05-09T03:08:08.843Z,10.00
2019-05-09T03:10:38.069Z,9.53
2019-05-09T03:13:09.104Z,10.50
2019-05-09T03:15:39.370Z,10.20
2019-05-09T03:18:08.951Z,9.33
2019-05-09T03:20:58.267Z,10.43
2019-05-09T03:23:28.241Z,10.50
2019-05-09T03:25:58.545Z,10.00
2019-05-09T03:28:43.905Z,11.83
2019-05-09T03:31:14.058Z,12.27
2019-05-09T03:33:42.487Z,12.30
2019-05-09T03:36:10.912Z,13.33
2019-05-09T03:38:39.617Z,13.20
2019-05-09T03:41:08.619Z,15.77
2019-05-09T03:43:37.803Z,15.47
2019-05-09T03:46:24.146Z,16.70
2019-05-09T03:48:54.222Z,15.03
2019-05-09T03:51:22.669Z,17.27
2019-05-09T03:53:51.109Z,18.13
2019-05-09T03:56:23.889Z,15.50
2019-05-09T03:58:52.328Z,18.43
2019-05-09T04:01:20.769Z,17.93
2019-05-09T04:03:49.213Z,17.30
2019-05-09T04:06:18.554Z,17.90
2019-05-09T04:08:48.167Z,19.77
2019-05-09T04:11:18.521Z,18.30
2019-05-09T04:13:51.448Z,19.83
2019-05-09T04:16:19.891Z,19.30
2019-05-09T04:18:49.476Z,19.43
2019-05-09T04:21:17.901Z,19.30
2019-05-09T04:23:48.067Z,16.70
2019-05-09T04:26:27.720Z,18.10
2019-05-09T04:28:57.934Z,18.30
2019-05-09T04:31:28.003Z,17.77
2019-05-09T04:33:57.465Z,16.90
2019-05-09T04:36:38.495Z,20.00
2019-05-09T04:39:12.934Z,18.10
2019-05-09T04:41:40.230Z,18.43
2019-05-09T04:44:16.769Z,18.40
2019-05-09T04:46:40.485Z,19.50
2019-05-09T04:49:08.917Z,19.60
2019-05-09T04:51:39.254Z,18.93
2019-05-09T04:54:07.550Z,19.53
2019-05-09T04:56:40.282Z,21.10
2019-05-09T04:59:08.726Z,18.90
2019-05-09T05:01:58.161Z,18.27
2019-05-09T05:04:28.266Z,21.63
2019-05-09T05:06:58.472Z,21.20
2019-05-09T05:09:27.845Z,22.87
2019-05-09T05:11:57.940Z,24.17
2019-05-09T05:14:29.031Z,22.20
2019-05-09T05:17:06.209Z,24.10
2019-05-09T05:19:31.134Z,23.40
2019-05-09T05:21:59.817Z,23.80
2019-05-09T05:24:32.853Z,24.10
2019-05-09T05:27:01.307Z,24.40
2019-05-09T05:29:29.860Z,23.87
2019-05-09T05:32:00.582Z,24.97
2019-05-09T05:34:37.729Z,24.97
2019-05-09T05:37:07.517Z,27.33
2019-05-09T05:39:37.524Z,28.10
2019-05-09T05:42:08.305Z,26.03
2019-05-09T05:44:38.623Z,26.57
2019-05-09T05:47:11.073Z,27.90
2019-05-09T05:49:39.689Z,28.07
2019-05-09T05:52:08.782Z,28.30
2019-05-09T05:54:38.653Z,27.33
2019-05-09T05:57:08.457Z,27.10
2019-05-09T05:59:40.726Z,28.70
2019-05-09T06:02:08.544Z,27.67
2019-05-09T06:04:38.281Z,29.07
2019-05-09T06:07:08.129Z,29.20
2019-05-09T06:09:37.901Z,30.30
2019-05-09T06:12:08.222Z,30.50
2019-05-09T06:14:37.848Z,30.83
2019-05-09T06:17:07.858Z,30.20
2019-05-09T06:19:37.929Z,31.93
2019-05-09T06:22:08.313Z,32.57
2019-05-09T06:24:38.732Z,28.90
2019-05-09T06:27:10.156Z,28.93
2019-05-09T06:29:38.629Z,26.30
2019-05-09T06:32:08.029Z,31.07
2019-05-09T06:34:41.342Z,28.50
2019-05-09T06:37:09.026Z,31.20
2019-05-09T06:39:40.129Z,31.53
2019-05-09T06:42:09.335Z,30.60
2019-05-09T06:44:42.405Z,30.40
2019-05-09T06:47:12.484Z,31.57
2019-05-09T06:49:50.072Z,32.60
2019-05-09T06:52:18.481Z,30.20
2019-05-09T06:54:48.644Z,31.50
2019-05-09T06:57:18.686Z,33.60
2019-05-09T06:59:48.787Z,30.57
2019-05-09T07:02:22.018Z,34.40
2019-05-09T07:04:52.082Z,33.43
2019-05-09T07:07:22.172Z,31.23
2019-05-09T07:09:55.242Z,32.70
2019-05-09T07:12:23.710Z,30.67
2019-05-09T07:14:52.133Z,32.30
2019-05-09T07:17:20.574Z,29.97
2019-05-09T07:19:49.239Z,29.77
2019-05-09T07:22:22.593Z,32.23
2019-05-09T07:25:11.087Z,32.10
2019-05-09T07:27:39.984Z,34.60
2019-05-09T07:30:14.911Z,33.90
2019-05-09T07:32:50.864Z,34.80
2019-05-09T07:35:19.285Z,33.53
2019-05-09T07:37:48.758Z,36.30
2019-05-09T07:40:18.230Z,37.10
2019-05-09T07:42:47.929Z,34.13
2019-05-09T07:45:17.816Z,38.60
2019-05-09T07:47:47.875Z,37.27
2019-05-09T07:50:18.974Z,40.00
2019-05-09T07:52:47.802Z,37.20
2019-05-09T07:55:18.318Z,38.37
2019-05-09T07:57:54.610Z,35.73
2019-05-09T08:00:20.018Z,33.77
2019-05-09T08:02:48.458Z,31.37
2019-05-09T08:05:22.615Z,38.30
2019-05-09T08:07:51.138Z,34.43
2019-05-09T08:10:19.665Z,39.00
2019-05-09T08:12:48.163Z,36.37
2019-05-09T08:15:20.051Z,36.90
2019-05-09T08:17:48.834Z,34.33
2019-05-09T08:20:17.592Z,33.93
2019-05-09T08:22:57.155Z,35.73
2019-05-09T08:25:18.357Z,34.10
2019-05-09T08:27:48.279Z,30.70
2019-05-09T08:30:18.002Z,33.10
2019-05-09T08:32:48.206Z,33.77
2019-05-09T08:35:18.315Z,33.40
2019-05-09T08:37:47.727Z,35.70
2019-05-09T08:40:18.351Z,34.50
2019-05-09T08:42:48.046Z,31.20
2019-05-09T08:45:25.316Z,32.50
2019-05-09T08:47:48.501Z,31.10
2019-05-09T08:50:31.676Z,31.10
2019-05-09T08:53:00.116Z,31.67
2019-05-09T08:55:28.570Z,33.20
2019-05-09T08:57:58.797Z,29.77
2019-05-09T09:00:28.291Z,28.37
2019-05-09T09:02:57.554Z,29.20
2019-05-09T09:05:28.670Z,31.53
2019-05-09T09:07:57.900Z,29.13
2019-05-09T09:10:28.950Z,28.57
2019-05-09T09:12:58.011Z,27.30
2019-05-09T09:15:54.666Z,28.87
2019-05-09T09:17:57.886Z,31.67
2019-05-09T09:20:28.782Z,28.60
2019-05-09T09:22:58.226Z,30.77
2019-05-09T09:25:28.652Z,29.07
2019-05-09T09:27:58.122Z,26.27
2019-05-09T09:30:29.315Z,26.77
2019-05-09T09:32:58.660Z,24.90
2019-05-09T09:35:27.914Z,28.20
2019-05-09T09:37:57.965Z,29.10
2019-05-09T09:40:27.867Z,21.60
2019-05-09T09:42:58.107Z,22.20
2019-05-09T09:45:27.933Z,23.27
2019-05-09T09:47:59.286Z,24.60
2019-05-09T09:50:27.843Z,24.23
2019-05-09T09:52:58.931Z,24.83
2019-05-09T09:55:27.920Z,27.17
2019-05-09T09:57:57.765Z,22.53
2019-05-09T10:00:52.333Z,22.53
2019-05-09T10:03:21.200Z,26.40
2019-05-09T10:05:49.811Z,27.27
2019-05-09T10:08:18.467Z,26.23
2019-05-09T10:10:48.449Z,26.67
2019-05-09T10:13:19.659Z,27.90
2019-05-09T10:16:04.790Z,24.00
2019-05-09T10:18:34.862Z,26.30
2019-05-09T10:21:07.853Z,20.50
2019-05-09T10:23:37.851Z,19.50
2019-05-09T10:26:08.566Z,20.57
2019-05-09T10:28:37.984Z,18.53
2019-05-09T10:31:06.949Z,16.30
2019-05-09T10:33:37.369Z,14.67
2019-05-09T10:36:08.249Z,15.67
2019-05-09T10:38:38.345Z,16.57
2019-05-09T10:41:05.971Z,17.40
2019-05-09T10:43:48.555Z,18.10
2019-05-09T10:46:19.401Z,15.53
2019-05-09T10:48:49.751Z,15.37
2019-05-09T10:51:18.677Z,13.80
2019-05-09T10:53:48.158Z,11.67
2019-05-09T10:56:18.678Z,9.20
2019-05-09T10:58:48.221Z,9.47
2019-05-09T11:01:18.567Z,10.17
2019-05-09T11:03:48.224Z,8.50
2019-05-09T11:06:18.332Z,9.77
2019-05-09T11:08:47.799Z,8.40
2019-05-09T11:11:18.347Z,8.70
2019-05-09T11:13:48.219Z,9.50
2019-05-09T11:16:18.258Z,8.17
2019-05-09T11:18:48.203Z,8.53
2019-05-09T11:21:20.091Z,7.90
2019-05-09T11:23:48.999Z,7.67
2019-05-09T11:26:18.329Z,8.53
2019-05-09T11:28:46.943Z,7.83
2019-05-09T11:31:17.996Z,9.10
2019-05-09T11:33:48.131Z,12.60
2019-05-09T11:36:20.773Z,9.70
2019-05-09T11:38:49.111Z,8.30
2019-05-09T11:41:19.146Z,9.60
2019-05-09T11:43:48.546Z,7.20
2019-05-09T11:46:17.956Z,6.10
2019-05-09T11:48:47.105Z,7.43
2019-05-09T11:51:20.531Z,6.47
2019-05-09T11:53:48.261Z,5.43
2019-05-09T11:56:18.062Z,3.60
2019-05-09T11:58:48.044Z,5.00
2019-05-09T12:01:18.574Z,3.93
2019-05-09T12:03:49.948Z,3.43
2019-05-09T12:06:19.668Z,2.70
2019-05-09T12:08:48.264Z,2.70
2019-05-09T12:11:18.389Z,2.73
2019-05-09T12:13:48.531Z,2.80
2019-05-09T12:16:38.120Z,2.63
2019-05-09T12:19:06.728Z,2.60
2019-05-09T12:21:44.834Z,4.97
2019-05-09T12:24:05.660Z,7.20
2019-05-09T12:26:34.160Z,2.13
2019-05-09T12:29:02.615Z,2.17
2019-05-09T12:31:31.049Z,3.60
2019-05-09T12:33:59.772Z,8.90
2019-05-09T12:36:28.903Z,3.10
2019-05-09T12:38:59.453Z,2.20
2019-05-09T12:41:31.633Z,1.83
2019-05-09T12:43:58.290Z,2.00
2019-05-09T12:46:28.378Z,1.70
2019-05-09T12:48:59.172Z,1.77
2019-05-09T12:51:28.217Z,4.93
2019-05-09T12:53:57.812Z,6.30
2019-05-09T12:56:28.523Z,1.50
2019-05-09T12:58:57.843Z,1.43
2019-05-09T13:01:26.857Z,2.07
2019-05-09T13:03:58.047Z,1.87
2019-05-09T13:06:25.544Z,1.70
2019-05-09T13:08:54.006Z,2.50
2019-05-09T13:11:22.510Z,2.10
2019-05-09T13:13:50.950Z,1.50
2019-05-09T13:16:42.673Z,1.57
2019-05-09T13:19:07.502Z,1.50
2019-05-09T13:21:38.335Z,1.80
2019-05-09T13:24:08.399Z,1.70
2019-05-09T13:26:38.469Z,1.40
2019-05-09T13:29:08.080Z,1.60
2019-05-09T13:31:39.208Z,1.67
2019-05-09T13:34:07.946Z,1.40
2019-05-09T13:36:36.928Z,1.77
2019-05-09T13:39:09.072Z,1.40
2019-05-09T13:41:39.100Z,1.73
2019-05-09T13:44:13.229Z,1.67
2019-05-09T13:46:38.928Z,1.67
2019-05-09T13:49:12.603Z,1.70
2019-05-09T13:51:47.432Z,1.57
2019-05-09T13:54:08.034Z,1.60
2019-05-09T13:56:36.602Z,1.20
2019-05-09T13:59:05.041Z,1.50
2019-05-09T14:01:33.472Z,1.63
2019-05-09T14:04:02.195Z,1.37
2019-05-09T14:06:30.931Z,1.57
2019-05-09T14:08:59.934Z,1.80
2019-05-09T14:11:29.261Z,2.50
2019-05-09T14:13:57.942Z,2.13
2019-05-09T14:16:28.772Z,2.30
2019-05-09T14:18:59.020Z,1.47
2019-05-09T14:21:29.557Z,1.80
2019-05-09T14:24:10.793Z,1.77
2019-05-09T14:26:27.747Z,1.53
2019-05-09T14:28:58.245Z,1.80
2019-05-09T14:31:29.831Z,1.60
2019-05-09T14:34:16.227Z,1.60
2019-05-09T14:36:45.985Z,1.40
2019-05-09T14:39:14.826Z,1.73
2019-05-09T14:41:46.836Z,1.50
2019-05-09T14:44:13.439Z,1.70
2019-05-09T14:46:41.877Z,1.47
2019-05-09T14:49:10.324Z,1.90
2019-05-09T14:51:38.855Z,1.20
2019-05-09T14:54:08.420Z,2.17
2019-05-09T14:56:41.763Z,1.33
2019-05-09T14:59:09.802Z,1.57
2019-05-09T15:01:39.039Z,1.60
2019-05-09T15:04:08.996Z,1.80
2019-05-09T15:06:37.720Z,3.17
2019-05-09T15:09:08.602Z,1.80
2019-05-09T15:11:39.971Z,1.73
2019-05-09T15:14:08.541Z,1.60
2019-05-09T15:16:39.093Z,1.37
2019-05-09T15:19:08.386Z,1.53
2019-05-09T15:21:38.718Z,1.47
2019-05-09T15:24:09.311Z,2.90
2019-05-09T15:26:37.457Z,1.97
2019-05-09T15:29:07.940Z,1.80
2019-05-09T15:31:38.868Z,1.70
2019-05-09T15:34:09.675Z,1.80
2019-05-09T15:36:37.988Z,1.43
2019-05-09T15:39:08.243Z,1.80
2019-05-09T15:41:38.426Z,1.20
2019-05-09T15:44:08.340Z,1.53
2019-05-09T15:46:38.792Z,1.50
2019-05-09T15:49:07.738Z,2.00
2019-05-09T15:51:38.507Z,1.63
2019-05-09T15:54:08.323Z,1.90
2019-05-09T15:56:38.430Z,1.70
2019-05-09T15:59:07.149Z,1.50
2019-05-09T16:01:35.588Z,1.63
2019-05-09T16:04:04.021Z,1.40
2019-05-09T16:06:33.183Z,1.50
2019-05-09T16:09:01.894Z,2.10
2019-05-09T16:11:30.413Z,1.93
2019-05-09T16:13:58.845Z,1.50
2019-05-09T16:16:28.630Z,1.87
2019-05-09T16:18:58.487Z,1.60
2019-05-09T16:21:27.806Z,2.03
2019-05-09T16:23:59.594Z,2.57
2019-05-09T16:26:29.131Z,1.60
2019-05-09T16:28:58.223Z,2.00
2019-05-09T16:31:27.901Z,2.03
2019-05-09T16:33:58.056Z,2.20
2019-05-09T16:36:28.235Z,3.20
2019-05-09T16:38:58.401Z,2.43
2019-05-09T16:41:28.013Z,1.83
2019-05-09T16:43:58.384Z,2.57
2019-05-09T16:46:28.629Z,2.43
2019-05-09T16:48:58.146Z,2.43
2019-05-09T16:51:28.547Z,2.63
2019-05-09T16:53:58.380Z,2.20
2019-05-09T16:56:28.701Z,2.70
2019-05-09T16:58:57.834Z,3.93
2019-05-09T17:01:28.438Z,2.30
2019-05-09T17:03:57.511Z,5.30
2019-05-09T17:06:27.499Z,2.63
2019-05-09T17:08:58.108Z,2.83
2019-05-09T17:11:27.772Z,3.17
2019-05-09T17:13:58.415Z,2.60
2019-05-09T17:16:28.610Z,2.80
2019-05-09T17:18:58.166Z,2.40
2019-05-09T17:21:28.633Z,4.17
2019-05-09T17:23:58.478Z,3.77
2019-05-09T17:26:28.386Z,3.50
2019-05-09T17:28:58.185Z,3.83
2019-05-09T17:31:27.542Z,3.20
2019-05-09T17:33:57.965Z,5.83
2019-05-09T17:36:28.522Z,4.03
2019-05-09T17:38:56.634Z,4.50
2019-05-09T17:41:25.065Z,3.63
2019-05-09T17:43:54.073Z,1.97
2019-05-09T17:46:24.512Z,2.30
2019-05-09T17:48:53.644Z,2.10
2019-05-09T17:51:33.053Z,2.40
2019-05-09T17:53:52.573Z,3.10
2019-05-09T17:56:21.020Z,2.40
2019-05-09T17:58:49.477Z,2.40
2019-05-09T18:01:18.186Z,2.93
2019-05-09T18:03:48.047Z,2.70
2019-05-09T18:06:19.091Z,3.37
2019-05-09T18:08:48.487Z,3.50
2019-05-09T18:11:17.504Z,3.17
2019-05-09T18:13:48.107Z,3.00
2019-05-09T18:16:19.064Z,2.60
2019-05-09T18:18:48.044Z,2.40
2019-05-09T18:21:17.837Z,2.83
2019-05-09T18:23:47.912Z,2.83
2019-05-09T18:26:18.567Z,3.47
2019-05-09T18:28:47.923Z,2.60
2019-05-09T18:31:16.712Z,3.27
2019-05-09T18:33:47.635Z,2.80
2019-05-09T18:36:16.413Z,3.30
2019-05-09T18:38:44.918Z,3.47
2019-05-09T18:41:13.356Z,3.20
2019-05-09T18:43:43.583Z,3.17
2019-05-09T18:46:12.034Z,4.23
2019-05-09T18:48:41.586Z,3.10
2019-05-09T18:51:10.046Z,3.80
2019-05-09T18:53:38.472Z,3.10
2019-05-09T18:56:06.911Z,2.87
2019-05-09T18:58:36.055Z,3.37
2019-05-09T19:01:05.125Z,3.57
2019-05-09T19:03:33.565Z,3.40
2019-05-09T19:06:02.005Z,3.17
2019-05-09T19:08:30.579Z,3.77
2019-05-09T19:11:00.118Z,2.87
2019-05-09T19:13:29.985Z,3.83
2019-05-09T19:16:00.232Z,3.43
2019-05-09T19:18:33.242Z,3.23
2019-05-09T19:21:03.974Z,3.70
2019-05-09T19:23:32.418Z,3.80
2019-05-09T19:26:02.499Z,4.93
2019-05-09T19:28:30.947Z,4.37
2019-05-09T19:30:59.566Z,4.17
2019-05-09T19:33:28.008Z,3.60
2019-05-09T19:35:56.625Z,5.67
2019-05-09T19:38:25.118Z,4.93
2019-05-09T19:40:53.589Z,5.00
2019-05-09T19:43:22.036Z,4.40
2019-05-09T19:45:50.556Z,4.43
2019-05-09T19:48:19.141Z,5.07
2019-05-09T19:50:47.628Z,3.67
2019-05-09T19:53:16.074Z,4.90
2019-05-09T19:55:44.507Z,4.27
2019-05-09T19:58:12.963Z,4.43
2019-05-09T20:00:41.413Z,4.50
2019-05-09T20:03:09.857Z,4.73
2019-05-09T20:05:38.278Z,5.17
2019-05-09T20:08:08.056Z,4.10
2019-05-09T20:10:54.482Z,3.50
2019-05-09T20:13:30.714Z,14.23
2019-05-09T20:15:59.130Z,4.13
2019-05-09T20:18:27.567Z,3.63
2019-05-09T20:20:56.010Z,3.73
2019-05-09T20:23:24.525Z,3.23
2019-05-09T20:25:52.962Z,5.33
2019-05-09T20:28:21.461Z,4.27
2019-05-09T20:30:49.885Z,4.10
2019-05-09T20:33:18.325Z,4.63
2019-05-09T20:35:46.796Z,3.80
2019-05-09T20:38:15.977Z,4.00
2019-05-09T20:40:44.649Z,3.60
2019-05-09T20:43:13.320Z,3.73
2019-05-09T20:45:42.137Z,4.27
2019-05-09T20:48:10.845Z,3.67
2019-05-09T20:50:39.514Z,3.83
2019-05-09T20:53:09.914Z,3.63
2019-05-09T20:55:38.474Z,4.73
2019-05-09T20:58:08.014Z,3.67
2019-05-09T21:00:36.643Z,3.30
2019-05-09T21:03:07.993Z,3.73
2019-05-09T21:05:35.701Z,4.57
2019-05-09T21:08:04.345Z,3.77
2019-05-09T21:10:32.964Z,3.53
2019-05-09T21:13:02.890Z,4.60
2019-05-09T21:15:31.516Z,4.57
2019-05-09T21:18:00.162Z,4.50
2019-05-09T21:20:28.970Z,4.57
2019-05-09T21:22:59.123Z,4.33
2019-05-09T21:25:27.820Z,4.20
2019-05-09T21:27:56.463Z,4.70
2019-05-09T21:30:25.343Z,4.13
2019-05-09T21:32:54.223Z,3.50
2019-05-09T21:35:22.665Z,3.57
2019-05-09T21:37:51.080Z,3.33
2019-05-09T21:40:19.712Z,4.00
2019-05-09T21:42:48.226Z,4.10
2019-05-09T21:45:17.104Z,3.47
2019-05-09T21:47:45.619Z,3.70
2019-05-09T21:50:14.292Z,4.17
2019-05-09T21:52:42.889Z,4.00
2019-05-09T21:55:11.589Z,4.90
2019-05-09T21:57:40.105Z,4.83
2019-05-09T22:00:18.122Z,4.20
2019-05-09T22:02:48.976Z,4.07
2019-05-09T22:05:17.653Z,4.93
2019-05-09T22:07:46.174Z,3.40
2019-05-09T22:10:16.893Z,4.20
2019-05-09T22:12:47.386Z,3.60
2019-05-09T22:15:16.361Z,3.63
2019-05-09T22:17:44.835Z,3.40
2019-05-09T22:20:17.119Z,3.87
2019-05-09T22:22:48.018Z,3.80
2019-05-09T22:25:20.965Z,4.20
2019-05-09T22:27:49.472Z,4.10
2019-05-09T22:30:18.925Z,4.13
2019-05-09T22:32:47.323Z,4.37
2019-05-09T22:35:20.254Z,4.10
2019-05-09T22:37:48.706Z,4.67
2019-05-09T22:40:25.126Z,4.37
2019-05-09T22:42:53.768Z,4.10
2019-05-09T22:45:22.807Z,5.03
2019-05-09T22:47:51.527Z,4.50
2019-05-09T22:50:23.486Z,5.40
2019-05-09T22:52:53.559Z,5.60
2019-05-09T22:55:29.030Z,5.17
2019-05-09T22:57:57.617Z,5.40
2019-05-09T23:00:29.315Z,6.10
2019-05-09T23:02:57.828Z,6.50
2019-05-09T23:05:35.387Z,5.73
2019-05-09T23:08:04.214Z,5.87
2019-05-09T23:10:32.644Z,5.50
2019-05-09T23:13:01.284Z,5.80
2019-05-09T23:15:29.795Z,5.50
2019-05-09T23:17:59.972Z,5.70
2019-05-09T23:20:42.833Z,5.43
2019-05-09T23:23:34.134Z,5.40
2019-05-09T23:26:02.804Z,7.20
2019-05-09T23:28:34.682Z,5.30
2019-05-09T23:31:07.870Z,5.53
2019-05-09T23:33:38.032Z,5.07
2019-05-09T23:36:06.463Z,5.83
2019-05-09T23:38:36.537Z,5.97
2019-05-09T23:41:05.350Z,5.77
2019-05-09T23:43:33.789Z,9.47
2019-05-09T23:46:02.322Z,5.97
2019-05-09T23:48:30.767Z,5.70
2019-05-09T23:50:59.199Z,5.90
2019-05-09T23:53:31.897Z,6.00
2019-05-09T23:56:18.935Z,6.87
2019-05-09T23:59:05.354Z,5.20
